Time;durP1;ratioP1;P1;durP2;ratioP2;P2;SDS_P1;SDS_P2;PMS_P1;PMS_P2;Temp;Humidity;BMP_temperature;BMP_pressure;BME280_temperature;BME280_humidity;BME280_pressure;Samples;Min_cycle;Max_cycle;Signal;HPM_P1;HPM_P2
2022/03/16 00:00:04;;;;;;;25.50;16.15;;;11.80;86.40;;;;;;5041862;28;20033;-49
2022/03/16 00:02:30;;;;;;;20.60;14.95;;;11.50;88.80;;;;;;5061165;28;20431;-49
2022/03/16 00:04:56;;;;;;;25.85;16.08;;;11.40;86.90;;;;;;5047749;28;20050;-49
2022/03/16 00:07:22;;;;;;;22.63;15.38;;;11.30;87.80;;;;;;5063080;28;20090;-49
2022/03/16 00:09:49;;;;;;;23.33;14.27;;;11.20;88.50;;;;;;5072433;28;20029;-49
2022/03/16 00:12:15;;;;;;;21.95;14.52;;;11.10;88.50;;;;;;5053586;28;20028;-49
2022/03/16 00:14:42;;;;;;;21.77;13.73;;;11.00;90.00;;;;;;5047366;28;20084;-49
2022/03/16 00:17:08;;;;;;;18.40;13.80;;;11.00;89.30;;;;;;5053368;28;20049;-49
2022/03/16 00:19:34;;;;;;;21.40;13.95;;;11.10;89.40;;;;;;5067546;28;20032;-49
2022/03/16 00:22:03;;;;;;;19.75;12.60;;;11.20;88.90;;;;;;5050904;28;20084;-50
2022/03/16 00:24:30;;;;;;;17.13;11.80;;;11.20;89.30;;;;;;5072022;28;20036;-50
2022/03/16 00:26:55;;;;;;;18.42;12.60;;;11.00;90.10;;;;;;5072022;28;20063;-49
2022/03/16 00:29:21;;;;;;;16.25;12.63;;;11.10;90.10;;;;;;5071854;28;20060;-49
2022/03/16 00:31:47;;;;;;;14.40;11.23;;;11.10;90.10;;;;;;5073371;28;20040;-49
2022/03/16 00:34:13;;;;;;;18.40;12.75;;;11.20;90.00;;;;;;5048773;28;20090;-49
2022/03/16 00:36:38;;;;;;;19.50;13.85;;;11.20;89.70;;;;;;5072584;28;20028;-49
2022/03/16 00:39:04;;;;;;;20.45;14.18;;;11.30;89.40;;;;;;5059543;28;20036;-48
2022/03/16 00:41:31;;;;;;;21.58;12.52;;;11.20;89.90;;;;;;5052375;28;20070;-49
2022/03/16 00:43:57;;;;;;;16.38;11.80;;;11.10;90.20;;;;;;5036623;28;20385;-49
2022/03/16 00:46:23;;;;;;;18.98;11.90;;;11.00;90.40;;;;;;5067677;28;20047;-49
2022/03/16 00:48:48;;;;;;;20.83;12.95;;;11.00;90.30;;;;;;5072963;28;20115;-49
2022/03/16 00:51:14;;;;;;;20.08;13.00;;;11.00;90.50;;;;;;5071768;28;20037;-49
2022/03/16 00:53:41;;;;;;;21.48;13.70;;;11.00;90.50;;;;;;5036869;28;20044;-49
2022/03/16 00:56:08;;;;;;;23.73;13.70;;;10.90;90.80;;;;;;5040625;28;20492;-49
2022/03/16 00:58:34;;;;;;;27.42;12.05;;;10.90;91.00;;;;;;5071631;28;20028;-49
2022/03/16 01:01:00;;;;;;;24.30;12.48;;;10.80;91.20;;;;;;5039087;28;20039;-49
2022/03/16 01:03:28;;;;;;;18.73;12.55;;;10.80;91.50;;;;;;5072100;28;20439;-49
2022/03/16 01:05:53;;;;;;;18.25;12.50;;;10.80;91.70;;;;;;5073208;28;20568;-49
2022/03/16 01:08:19;;;;;;;19.70;10.75;;;10.80;91.70;;;;;;5057250;28;20068;-49
2022/03/16 01:10:45;;;;;;;18.65;10.80;;;10.80;91.90;;;;;;5072587;28;20361;-49
2022/03/16 01:13:11;;;;;;;16.17;11.02;;;10.70;92.20;;;;;;5040071;28;20040;-49
2022/03/16 01:15:37;;;;;;;14.38;9.98;;;10.80;92.10;;;;;;5075857;28;20048;-49
2022/03/16 01:18:03;;;;;;;16.20;11.07;;;10.90;91.80;;;;;;5074063;28;20044;-49
2022/03/16 01:20:29;;;;;;;16.80;11.38;;;11.00;91.70;;;;;;5074952;28;20028;-49
2022/03/16 01:22:55;;;;;;;17.33;11.23;;;11.10;91.50;;;;;;5068121;28;20037;-49
2022/03/16 01:25:20;;;;;;;26.52;12.68;;;11.30;91.20;;;;;;5076262;28;20446;-49
2022/03/16 01:27:46;;;;;;;28.45;14.07;;;11.50;91.40;;;;;;5056595;28;20075;-49
2022/03/16 01:30:15;;;;;;;29.65;16.40;;;11.60;91.50;;;;;;5064079;28;20032;-49
2022/03/16 01:32:41;;;;;;;29.77;17.75;;;11.70;91.50;;;;;;5074877;28;20036;-49
2022/03/16 01:35:08;;;;;;;67.25;33.35;;;11.80;91.40;;;;;;5075091;28;20074;-49
2022/03/16 01:37:35;;;;;;;27.55;16.88;;;11.80;91.40;;;;;;5074797;28;20094;-49
2022/03/16 01:40:01;;;;;;;31.90;17.10;;;12.00;91.80;;;;;;5075475;28;20464;-49
2022/03/16 01:42:27;;;;;;;123.95;58.60;;;12.00;92.10;;;;;;5074597;28;20078;-49
2022/03/16 01:44:57;;;;;;;75.25;38.85;;;11.90;92.10;;;;;;5074477;28;20074;-48
2022/03/16 01:47:24;;;;;;;37.72;21.20;;;11.70;92.40;;;;;;5074687;28;20551;-49
2022/03/16 01:49:50;;;;;;;47.78;25.95;;;11.70;92.30;;;;;;5071126;28;20387;-49
2022/03/16 01:52:19;;;;;;;54.20;28.58;;;11.80;92.40;;;;;;5080232;28;20041;-49
2022/03/16 01:54:45;;;;;;;50.78;23.13;;;12.00;91.80;;;;;;5074161;28;20449;-49
2022/03/16 01:57:11;;;;;;;33.53;19.83;;;12.00;91.50;;;;;;5075104;28;20029;-49
2022/03/16 01:59:40;;;;;;;25.77;15.88;;;11.90;91.00;;;;;;5074242;28;20400;-49
2022/03/16 02:02:06;;;;;;;24.42;14.05;;;11.70;91.10;;;;;;5074044;28;20415;-49
2022/03/16 02:04:33;;;;;;;22.00;12.35;;;11.60;91.30;;;;;;5074834;28;20471;-49
2022/03/16 02:06:59;;;;;;;17.88;12.82;;;11.40;91.30;;;;;;5074336;28;20089;-49
2022/03/16 02:09:26;;;;;;;18.70;12.63;;;11.40;91.50;;;;;;5074192;28;20043;-49
2022/03/16 02:11:52;;;;;;;14.90;11.43;;;11.30;91.70;;;;;;5074843;28;20028;-49
2022/03/16 02:14:17;;;;;;;28.80;17.02;;;11.30;91.70;;;;;;5074118;28;20052;-49
2022/03/16 02:16:47;;;;;;;41.33;23.48;;;11.40;91.70;;;;;;5073952;28;20060;-49
2022/03/16 02:19:13;;;;;;;52.47;27.25;;;11.60;91.30;;;;;;5074052;28;20033;-49
2022/03/16 02:21:42;;;;;;;18.45;10.55;;;11.60;90.90;;;;;;5073061;28;20037;-49
2022/03/16 02:24:08;;;;;;;17.23;10.85;;;11.60;90.70;;;;;;5026201;28;20056;-49
2022/03/16 02:26:34;;;;;;;14.25;10.32;;;11.60;90.80;;;;;;5064496;28;20091;-49
2022/03/16 02:29:00;;;;;;;14.50;9.32;;;11.50;91.00;;;;;;5058575;28;20074;-49
2022/03/16 02:31:27;;;;;;;13.65;9.48;;;11.40;91.50;;;;;;5058304;28;20025;-49
2022/03/16 02:33:53;;;;;;;17.10;9.95;;;11.40;91.60;;;;;;5061659;28;20489;-49
2022/03/16 02:36:19;;;;;;;14.00;9.55;;;11.30;91.70;;;;;;5056236;28;20033;-49
2022/03/16 02:38:45;;;;;;;13.73;8.73;;;11.30;91.70;;;;;;5060464;28;20044;-49
2022/03/16 02:41:11;;;;;;;14.95;9.77;;;11.30;91.80;;;;;;5054758;28;20107;-49
2022/03/16 02:43:37;;;;;;;14.27;10.20;;;11.20;92.10;;;;;;5050083;28;20439;-49
2022/03/16 02:46:03;;;;;;;14.98;11.68;;;11.20;92.20;;;;;;5055681;28;20033;-49
2022/03/16 02:48:29;;;;;;;15.23;9.80;;;11.20;92.20;;;;;;5061705;28;20047;-49
2022/03/16 02:50:55;;;;;;;15.38;10.13;;;11.30;92.10;;;;;;5061457;28;20085;-49
2022/03/16 02:53:21;;;;;;;22.52;11.73;;;11.40;92.10;;;;;;5054868;28;20032;-49
2022/03/16 02:55:48;;;;;;;20.67;11.73;;;11.40;92.00;;;;;;5053846;28;20037;-49
2022/03/16 02:58:15;;;;;;;17.00;11.57;;;11.50;92.10;;;;;;5063075;28;20072;-49
2022/03/16 03:00:42;;;;;;;14.80;9.68;;;11.50;92.20;;;;;;5055280;28;20037;-49
2022/03/16 03:03:08;;;;;;;13.13;9.50;;;11.50;91.90;;;;;;5073491;28;20028;-49
2022/03/16 03:05:35;;;;;;;14.25;9.10;;;11.50;92.00;;;;;;5073076;28;20044;-49
2022/03/16 03:08:01;;;;;;;14.18;8.75;;;11.40;91.90;;;;;;5072940;28;20028;-49
2022/03/16 03:10:27;;;;;;;13.30;8.48;;;11.30;91.70;;;;;;5072543;28;20035;-49
2022/03/16 03:12:53;;;;;;;12.32;8.05;;;11.30;91.90;;;;;;5023296;28;20544;-49
2022/03/16 03:15:19;;;;;;;11.98;8.13;;;11.30;91.90;;;;;;5072645;28;20101;-49
2022/03/16 03:17:45;;;;;;;10.50;7.57;;;11.20;92.10;;;;;;5072964;28;20107;-49
2022/03/16 03:20:12;;;;;;;11.57;7.38;;;11.20;92.00;;;;;;5073681;28;20028;-49
2022/03/16 03:22:39;;;;;;;15.48;8.70;;;11.20;91.90;;;;;;5074909;28;20063;-49
2022/03/16 03:25:09;;;;;;;17.25;10.20;;;11.20;91.90;;;;;;5072635;28;20060;-49
2022/03/16 03:27:35;;;;;;;16.45;8.95;;;11.20;91.90;;;;;;5073755;28;20025;-49
2022/03/16 03:30:01;;;;;;;14.07;9.18;;;11.20;91.90;;;;;;5072886;28;20047;-49
2022/03/16 03:32:28;;;;;;;13.68;8.80;;;11.30;91.90;;;;;;5072750;28;20079;-49
2022/03/16 03:34:55;;;;;;;16.38;9.15;;;11.30;91.70;;;;;;5072644;28;20032;-49
2022/03/16 03:37:21;;;;;;;13.55;8.63;;;11.40;91.60;;;;;;5073373;28;20115;-49
2022/03/16 03:39:48;;;;;;;15.40;9.05;;;11.50;91.50;;;;;;5071376;28;20373;-49
2022/03/16 03:42:14;;;;;;;18.00;9.82;;;11.60;91.30;;;;;;5072601;28;20028;-49
2022/03/16 03:44:40;;;;;;;20.05;11.88;;;11.70;91.00;;;;;;5071126;28;20131;-49
2022/03/16 03:47:07;;;;;;;23.67;12.32;;;11.90;90.70;;;;;;5072487;28;20490;-49
2022/03/16 03:49:34;;;;;;;18.73;11.65;;;12.10;90.40;;;;;;5070515;28;20395;-49
2022/03/16 03:52:00;;;;;;;21.67;11.63;;;12.20;90.10;;;;;;5073282;28;20027;-49
2022/03/16 03:54:26;;;;;;;30.25;19.85;;;12.20;90.00;;;;;;5073916;28;20060;-49
2022/03/16 03:56:51;;;;;;;25.88;12.43;;;12.20;89.90;;;;;;5070581;28;20032;-49
2022/03/16 03:59:17;;;;;;;25.08;14.45;;;12.10;90.10;;;;;;5072246;28;20460;-49
2022/03/16 04:01:43;;;;;;;27.45;14.23;;;12.10;90.00;;;;;;5073133;28;20033;-49
2022/03/16 04:04:09;;;;;;;24.15;14.90;;;12.20;90.00;;;;;;5072148;28;20032;-49
2022/03/16 04:06:35;;;;;;;19.13;11.98;;;12.30;89.50;;;;;;5085063;28;20082;-49
2022/03/16 04:09:00;;;;;;;20.65;12.40;;;12.30;89.30;;;;;;5072256;28;20044;-49
2022/03/16 04:11:26;;;;;;;37.95;15.18;;;12.30;89.50;;;;;;5078037;28;20036;-49
2022/03/16 04:13:52;;;;;;;31.33;14.95;;;12.40;90.00;;;;;;5062498;28;20052;-49
2022/03/16 04:16:18;;;;;;;32.08;13.10;;;12.50;88.40;;;;;;5072727;28;20476;-49
2022/03/16 04:18:43;;;;;;;31.45;13.85;;;12.70;88.00;;;;;;5062222;28;20480;-49
2022/03/16 04:21:09;;;;;;;60.80;18.45;;;;;;;;;;5074968;28;20032;-48
2022/03/16 04:23:35;;;;;;;37.13;14.35;;;12.90;88.00;;;;;;5076143;28;20052;-49
2022/03/16 04:26:01;;;;;;;87.32;18.30;;;12.90;99.90;;;;;;5076050;28;20083;-49
2022/03/16 04:28:27;;;;;;;36.60;12.85;;;12.80;91.20;;;;;;5076044;28;20052;-49
2022/03/16 04:30:52;;;;;;;15.98;11.70;;;12.80;91.90;;;;;;5045340;28;20047;-48
2022/03/16 04:33:18;;;;;;;24.08;12.48;;;12.70;92.00;;;;;;5074442;28;20082;-49
2022/03/16 04:35:44;;;;;;;20.20;12.00;;;12.70;92.30;;;;;;5075951;28;20116;-49
2022/03/16 04:38:10;;;;;;;24.08;12.57;;;12.60;92.40;;;;;;5078647;28;20054;-49
2022/03/16 04:40:36;;;;;;;28.30;13.18;;;12.60;92.20;;;;;;5076861;28;20925;-48
2022/03/16 04:43:02;;;;;;;23.90;13.02;;;13.00;92.30;;;;;;5064646;28;20112;-48
2022/03/16 04:45:27;;;;;;;28.17;14.30;;;12.50;92.10;;;;;;5073795;28;20447;-49
2022/03/16 04:47:53;;;;;;;71.05;18.10;;;12.50;92.20;;;;;;5046902;28;20111;-49
2022/03/16 04:50:19;;;;;;;29.48;14.32;;;12.50;92.80;;;;;;5076036;28;20124;-49
2022/03/16 04:52:47;;;;;;;22.48;14.45;;;12.40;92.50;;;;;;5075701;28;20029;-49
2022/03/16 04:55:14;;;;;;;34.63;15.80;;;12.40;92.50;;;;;;5057536;28;20082;-49
2022/03/16 04:57:40;;;;;;;40.13;14.20;;;12.30;92.90;;;;;;5073021;28;20036;-49
2022/03/16 05:00:07;;;;;;;19.13;13.35;;;12.20;93.40;;;;;;5075628;28;20039;-50
2022/03/16 05:02:32;;;;;;;21.92;13.60;;;12.20;94.00;;;;;;5023300;28;20038;-48
2022/03/16 05:04:58;;;;;;;27.63;18.80;;;12.10;94.60;;;;;;5080692;28;20151;-49
2022/03/16 05:07:24;;;;;;;46.03;23.02;;;12.00;94.90;;;;;;5075323;28;20056;-49
2022/03/16 05:09:50;;;;;;;53.05;30.27;;;11.80;95.00;;;;;;5075937;28;20043;-48
2022/03/16 05:12:16;;;;;;;61.83;32.08;;;11.90;94.70;;;;;;5048218;28;20380;-48
2022/03/16 05:14:41;;;;;;;89.63;35.72;;;11.90;94.50;;;;;;5074888;28;20492;-48
2022/03/16 05:17:07;;;;;;;70.63;35.67;;;11.90;94.20;;;;;;5080745;28;20036;-48
2022/03/16 05:19:34;;;;;;;78.60;35.25;;;11.70;94.30;;;;;;5056457;28;20095;-49
2022/03/16 05:22:00;;;;;;;65.28;33.08;;;11.80;94.70;;;;;;5075071;28;20044;-49
2022/03/16 05:24:26;;;;;;;44.30;29.02;;;11.90;94.70;;;;;;5074918;28;20037;-49
2022/03/16 05:26:52;;;;;;;54.47;30.40;;;12.00;94.90;;;;;;5075736;28;20025;-48
2022/03/16 05:29:18;;;;;;;53.13;31.48;;;12.00;95.00;;;;;;5075017;28;20074;-49
2022/03/16 05:31:44;;;;;;;48.22;28.83;;;12.00;94.70;;;;;;5074354;28;20028;-49
2022/03/16 05:34:10;;;;;;;53.15;28.15;;;12.00;95.00;;;;;;5073445;28;20020;-48
2022/03/16 05:36:36;;;;;;;51.05;26.33;;;12.00;95.20;;;;;;5075455;28;20032;-49
2022/03/16 05:39:04;;;;;;;81.22;27.83;;;11.90;95.40;;;;;;5075094;28;20495;-48
2022/03/16 05:41:30;;;;;;;48.55;27.48;;;11.90;95.40;;;;;;5074660;28;20033;-49
2022/03/16 05:43:56;;;;;;;47.40;27.48;;;11.90;95.40;;;;;;5074490;28;20108;-48
2022/03/16 05:46:22;;;;;;;101.78;46.33;;;11.80;95.10;;;;;;5074526;28;20075;-49
2022/03/16 05:48:47;;;;;;;53.90;29.08;;;11.90;95.30;;;;;;5074685;28;20069;-48
2022/03/16 05:51:13;;;;;;;60.22;28.13;;;12.00;95.00;;;;;;5075123;28;20044;-49
2022/03/16 05:53:39;;;;;;;48.13;28.00;;;12.00;95.00;;;;;;5045893;28;20045;-49
2022/03/16 05:56:05;;;;;;;47.58;28.33;;;11.70;95.60;;;;;;5066851;28;20480;-49
2022/03/16 05:58:31;;;;;;;43.80;27.88;;;11.50;96.10;;;;;;5074035;28;20020;-50
2022/03/16 06:00:57;;;;;;;54.95;29.60;;;11.40;96.40;;;;;;5074344;28;20116;-48
2022/03/16 06:03:23;;;;;;;60.90;34.97;;;11.30;97.00;;;;;;5067969;28;20044;-49
2022/03/16 06:05:48;;;;;;;114.57;48.58;;;11.30;96.60;;;;;;5069959;28;20111;-49
2022/03/16 06:08:14;;;;;;;109.90;51.20;;;11.50;96.50;;;;;;5071730;28;20039;-49
2022/03/16 06:10:41;;;;;;;134.57;65.38;;;11.60;96.30;;;;;;5063151;28;20051;-49
2022/03/16 06:13:07;;;;;;;160.35;68.20;;;11.70;96.00;;;;;;5072529;28;20044;-48
2022/03/16 06:15:43;;;;;;;126.85;64.78;;;11.60;96.10;;;;;;5073778;28;20067;-49
2022/03/16 06:18:10;;;;;;;165.00;72.10;;;11.60;96.30;;;;;;5071446;28;20020;-49
2022/03/16 06:20:36;;;;;;;183.68;86.72;;;11.50;96.30;;;;;;5071788;28;20032;-49
2022/03/16 06:23:05;;;;;;;171.45;79.45;;;11.50;95.90;;;;;;5073416;28;20033;-49
2022/03/16 06:25:33;;;;;;;197.80;87.60;;;11.40;96.40;;;;;;5032666;28;20136;-49
2022/03/16 06:27:59;;;;;;;187.98;86.65;;;11.40;96.00;;;;;;5047603;28;20041;-48
2022/03/16 06:30:25;;;;;;;244.57;101.25;;;11.40;96.20;;;;;;5017319;28;20055;-48
2022/03/16 06:32:51;;;;;;;193.07;83.45;;;11.40;96.20;;;;;;5047172;28;20524;-48
2022/03/16 06:35:17;;;;;;;144.73;63.13;;;11.50;96.50;;;;;;5043963;28;20539;-48
2022/03/16 06:37:44;;;;;;;317.20;115.68;;;11.60;96.50;;;;;;5043869;28;20082;-48
2022/03/16 06:40:11;;;;;;;120.47;63.05;;;11.80;95.70;;;;;;5048058;28;20095;-49
2022/03/16 06:42:56;;;;;;;125.20;61.53;;;11.70;95.30;;;;;;5047174;28;20032;-48
2022/03/16 06:45:24;;;;;;;121.28;61.65;;;11.70;95.60;;;;;;5047635;28;20056;-49
2022/03/16 06:47:53;;;;;;;104.38;58.13;;;11.80;95.10;;;;;;5043687;28;20037;-49
2022/03/16 06:50:20;;;;;;;160.07;72.60;;;11.80;95.40;;;;;;5038615;28;20436;-49
2022/03/16 06:52:46;;;;;;;155.18;71.85;;;11.90;95.00;;;;;;5020505;28;20858;-49
2022/03/16 06:55:12;;;;;;;93.05;52.72;;;12.10;95.00;;;;;;5037893;28;20025;-49
2022/03/16 06:57:39;;;;;;;87.40;49.47;;;12.00;94.40;;;;;;5062319;28;20127;-48
2022/03/16 07:00:07;;;;;;;86.20;48.72;;;12.00;94.90;;;;;;5060568;28;20037;-50
2022/03/16 07:02:49;;;;;;;95.05;53.35;;;12.10;94.60;;;;;;5061106;28;20017;-50
2022/03/16 07:05:14;;;;;;;376.15;154.95;;;12.30;94.60;;;;;;5061605;28;20048;-49
2022/03/16 07:07:40;;;;;;;289.70;131.05;;;12.60;94.50;;;;;;5036847;28;20265;-49
2022/03/16 07:10:06;;;;;;;333.13;151.30;;;12.70;93.90;;;;;;5058363;28;20024;-49
2022/03/16 07:12:32;;;;;;;90.68;46.60;;;;;;;;;;5051005;28;20034;-48
2022/03/16 07:14:58;;;;;;;150.10;58.65;;;13.20;94.20;;;;;;5061463;28;20563;-49
2022/03/16 07:17:24;;;;;;;55.85;34.08;;;13.20;94.10;;;;;;5052830;28;20032;-48
2022/03/16 07:19:49;;;;;;;62.60;33.88;;;13.30;93.40;;;;;;5059226;28;20029;-50
2022/03/16 07:22:15;;;;;;;77.88;34.35;;;13.60;93.20;;;;;;5061622;28;20476;-50
2022/03/16 07:24:41;;;;;;;52.35;31.42;;;13.60;95.10;;;;;;5064363;28;20048;-51
2022/03/16 07:27:07;;;;;;;55.13;32.10;;;13.50;95.00;;;;;;5060090;28;20041;-52
2022/03/16 07:29:33;;;;;;;36.47;25.85;;;13.40;95.40;;;;;;5052777;28;20047;-52
2022/03/16 07:31:59;;;;;;;49.85;26.77;;;13.70;96.30;;;;;;5060341;28;20115;-51
2022/03/16 07:34:26;;;;;;;52.65;26.42;;;;;;;;;;5065636;28;20024;-50
2022/03/16 07:36:53;;;;;;;53.35;30.95;;;;;;;;;;5062344;28;20028;-51
2022/03/16 07:39:19;;;;;;;43.75;22.90;;;;;;;;;;5067523;28;20024;-51
2022/03/16 07:41:45;;;;;;;39.47;23.08;;;;;;;;;;5080087;28;20040;-50
2022/03/16 07:44:11;;;;;;;50.13;31.17;;;;;;;;;;5073104;28;20040;-49
2022/03/16 07:46:37;;;;;;;42.63;23.63;;;;;;;;;;5071464;28;20021;-51
2022/03/16 07:49:04;;;;;;;42.13;23.80;;;;;;;;;;5072188;28;20064;-50
2022/03/16 07:51:30;;;;;;;36.40;23.48;;;14.60;92.40;;;;;;5073102;28;20524;-50
2022/03/16 07:53:55;;;;;;;44.95;26.75;;;14.50;92.60;;;;;;5071875;28;20223;-51
2022/03/16 07:56:21;;;;;;;37.75;25.70;;;14.60;93.20;;;;;;5065852;28;20028;-51
2022/03/16 07:58:47;;;;;;;37.40;24.52;;;14.50;92.90;;;;;;5065643;28;20439;-50
2022/03/16 08:01:13;;;;;;;50.35;28.85;;;14.50;93.10;;;;;;5070842;28;20033;-48
2022/03/16 08:03:39;;;;;;;35.75;25.27;;;14.60;93.40;;;;;;5071007;28;20078;-48
2022/03/16 08:06:04;;;;;;;50.38;27.25;;;14.40;93.50;;;;;;5073686;28;20075;-48
2022/03/16 08:08:31;;;;;;;45.67;29.15;;;14.50;93.30;;;;;;5071343;28;20113;-48
2022/03/16 08:14:19;;;;;;;45.78;30.17;;;14.50;93.30;;;;;;5071789;28;20060;-49
2022/03/16 08:16:46;;;;;;;51.28;31.08;;;14.60;93.70;;;;;;5069887;28;20049;-49
2022/03/16 08:19:14;;;;;;;34.67;22.45;;;14.70;93.90;;;;;;5071357;28;20383;-49
2022/03/16 08:21:40;;;;;;;48.30;24.48;;;14.60;93.50;;;;;;5037974;28;20040;-49
2022/03/16 08:24:06;;;;;;;65.38;27.55;;;14.80;93.60;;;;;;5070392;28;20501;-48
2022/03/16 08:26:32;;;;;;;41.45;23.17;;;14.90;93.70;;;;;;5072398;28;20551;-49
2022/03/16 08:28:57;;;;;;;39.08;22.70;;;14.90;93.60;;;;;;5071974;28;20436;-49
2022/03/16 08:31:23;;;;;;;37.70;21.80;;;15.00;93.40;;;;;;5071936;28;20112;-49
2022/03/16 08:33:49;;;;;;;38.63;23.98;;;15.10;93.00;;;;;;5070037;28;20369;-49
2022/03/16 08:36:15;;;;;;;34.80;17.83;;;15.00;93.00;;;;;;5082353;28;20044;-50
2022/03/16 08:38:41;;;;;;;64.80;22.38;;;15.00;92.50;;;;;;5065969;28;20037;-49
2022/03/16 08:41:08;;;;;;;34.22;20.17;;;14.90;93.00;;;;;;5066485;28;20492;-49
2022/03/16 08:43:34;;;;;;;30.65;18.52;;;14.90;92.70;;;;;;5066296;28;20067;-49
2022/03/16 08:46:01;;;;;;;32.45;18.10;;;15.00;93.10;;;;;;5061776;28;20087;-50
2022/03/16 08:48:27;;;;;;;40.28;17.92;;;15.10;93.10;;;;;;5065478;28;20078;-50
2022/03/16 08:50:53;;;;;;;35.15;17.40;;;15.10;93.30;;;;;;5067486;28;20039;-49
2022/03/16 08:53:19;;;;;;;38.95;14.88;;;15.20;93.20;;;;;;5085056;28;20474;-50
2022/03/16 08:55:45;;;;;;;22.77;10.20;;;15.30;92.30;;;;;;5066916;28;20037;-49
2022/03/16 08:58:14;;;;;;;31.55;10.43;;;15.30;90.10;;;;;;5071423;28;20120;-50
2022/03/16 09:00:41;;;;;;;18.52;10.10;;;15.20;90.20;;;;;;5065351;28;20040;-49
2022/03/16 09:03:08;;;;;;;25.35;11.38;;;15.30;90.00;;;;;;5064331;28;20111;-49
2022/03/16 09:05:34;;;;;;;15.32;9.68;;;15.30;90.30;;;;;;5064517;28;20032;-49
2022/03/16 09:08:00;;;;;;;25.83;9.80;;;15.20;89.00;;;;;;5070097;28;20066;-49
2022/03/16 09:10:26;;;;;;;19.20;9.43;;;15.30;89.20;;;;;;5090404;28;20189;-49
2022/03/16 09:12:52;;;;;;;14.40;9.60;;;15.30;88.70;;;;;;5075026;28;20478;-51
2022/03/16 09:15:17;;;;;;;40.13;12.15;;;15.20;88.80;;;;;;5059825;28;20133;-50
2022/03/16 09:17:43;;;;;;;18.08;9.73;;;15.30;88.70;;;;;;5070423;28;20102;-50
2022/03/16 09:20:09;;;;;;;19.90;9.20;;;15.30;87.90;;;;;;5069335;28;20032;-50
2022/03/16 09:22:35;;;;;;;18.95;8.52;;;15.20;87.40;;;;;;5073103;28;20058;-49
2022/03/16 09:25:01;;;;;;;21.45;10.73;;;15.20;86.90;;;;;;5068441;28;20045;-50
2022/03/16 09:27:27;;;;;;;18.10;10.85;;;15.10;87.00;;;;;;5080589;28;20044;-49
2022/03/16 09:29:55;;;;;;;12.65;7.93;;;15.00;87.80;;;;;;5068932;28;20029;-50
2022/03/16 09:32:22;;;;;;;16.38;9.18;;;15.10;87.20;;;;;;5071191;28;20671;-50
2022/03/16 09:34:49;;;;;;;14.55;8.52;;;15.20;87.00;;;;;;5070915;28;20033;-49
2022/03/16 09:37:15;;;;;;;14.25;8.40;;;15.30;87.30;;;;;;5071311;28;20688;-49
2022/03/16 09:39:41;;;;;;;16.33;7.43;;;15.20;86.50;;;;;;5089812;28;20101;-50
2022/03/16 09:42:09;;;;;;;9.27;6.72;;;15.30;87.40;;;;;;5067959;28;20376;-50
2022/03/16 09:44:36;;;;;;;18.35;8.35;;;15.30;86.70;;;;;;5064107;28;20476;-50
2022/03/16 09:47:04;;;;;;;10.15;6.85;;;15.30;87.30;;;;;;5071321;28;20051;-49
2022/03/16 09:49:30;;;;;;;11.38;6.95;;;15.30;86.70;;;;;;5061899;28;20392;-49
2022/03/16 09:51:57;;;;;;;16.23;7.93;;;15.30;86.40;;;;;;5074337;28;20036;-49
2022/03/16 09:54:24;;;;;;;9.88;7.00;;;15.20;87.70;;;;;;5070504;28;20033;-49
2022/03/16 09:56:50;;;;;;;19.13;7.00;;;15.10;86.80;;;;;;5089599;28;20396;-49
2022/03/16 09:59:16;;;;;;;11.20;6.57;;;15.10;85.60;;;;;;5067475;28;20037;-49
2022/03/16 10:01:43;;;;;;;14.45;7.53;;;14.90;86.10;;;;;;5065866;28;20523;-49
2022/03/16 10:04:09;;;;;;;10.20;6.60;;;14.90;87.60;;;;;;5088259;28;20040;-49
2022/03/16 10:06:40;;;;;;;24.90;10.95;;;14.90;87.70;;;;;;5061618;28;20039;-49
2022/03/16 10:15:10;;;;;;;12.75;8.40;;;14.60;89.70;;;;;;5069611;28;20091;-49
2022/03/16 10:17:43;;;;;;;17.33;7.88;;;14.40;89.80;;;;;;5067501;28;20040;-49
2022/03/16 10:20:23;;;;;;;17.55;10.20;;;14.30;89.40;;;;;;5065966;28;20037;-49
2022/03/16 10:23:05;;;;;;;14.65;8.13;;;14.20;90.00;;;;;;5074031;28;20025;-48
2022/03/16 10:25:37;;;;;;;16.45;9.80;;;14.20;90.30;;;;;;5060023;28;20045;-49
2022/03/16 10:28:23;;;;;;;18.42;6.80;;;14.00;91.00;;;;;;5072433;28;20032;-50
2022/03/16 10:31:00;;;;;;;12.30;6.15;;;14.00;91.30;;;;;;5064405;28;20086;-49
2022/03/16 10:33:32;;;;;;;58.70;22.58;;;13.80;92.70;;;;;;5072223;28;20036;-50
2022/03/16 10:36:05;;;;;;;14.98;7.63;;;13.70;94.00;;;;;;5069973;28;20035;-49
2022/03/16 10:38:36;;;;;;;17.42;7.22;;;13.50;95.30;;;;;;5061630;28;20476;-49
2022/03/16 10:46:48;;;;;;;26.67;11.45;;;13.10;97.10;;;;;;5062899;28;20048;-49
2022/03/16 10:49:19;;;;;;;18.52;8.30;;;13.10;97.40;;;;;;5066383;28;20476;-49
2022/03/16 10:51:46;;;;;;;41.10;16.27;;;13.20;97.70;;;;;;5068761;28;20032;-49
2022/03/16 10:54:16;;;;;;;80.25;28.65;;;13.30;97.50;;;;;;5067342;28;20118;-49
2022/03/16 10:56:42;;;;;;;36.58;13.77;;;13.30;98.00;;;;;;5062104;28;20424;-50
2022/03/16 10:59:08;;;;;;;60.67;26.40;;;13.40;97.50;;;;;;5067755;28;20044;-49
2022/03/16 11:01:39;;;;;;;10.18;5.53;;;13.40;97.90;;;;;;5028909;28;20033;-49
2022/03/16 11:04:06;;;;;;;11.35;6.15;;;13.30;97.50;;;;;;5066192;28;20037;-49
2022/03/16 11:06:35;;;;;;;6.43;4.40;;;13.30;97.90;;;;;;5065226;28;20467;-49
2022/03/16 11:09:01;;;;;;;7.82;4.55;;;13.20;97.60;;;;;;5070477;28;20037;-49
2022/03/16 11:14:13;;;;;;;5.95;3.97;;;13.30;97.60;;;;;;5055460;28;20051;-45
2022/03/16 11:16:40;;;;;;;12.55;6.80;;;13.30;97.40;;;;;;5062856;28;20054;-46
2022/03/16 11:19:07;;;;;;;9.93;6.28;;;13.30;97.70;;;;;;5057769;28;20035;-46
2022/03/16 11:21:49;;;;;;;7.43;4.80;;;13.20;98.00;;;;;;5037378;28;20047;-46
2022/03/16 11:24:23;;;;;;;10.82;7.18;;;13.30;97.60;;;;;;5062837;28;20074;-46
2022/03/16 11:27:22;;;;;;;12.43;8.32;;;13.40;98.10;;;;;;5066373;28;20037;-46
2022/03/16 11:30:07;;;;;;;22.80;14.70;;;13.40;97.40;;;;;;5057026;28;20047;-46
2022/03/16 11:32:44;;;;;;;9.82;6.35;;;13.60;98.20;;;;;;5066117;28;20404;-46
2022/03/16 11:35:13;;;;;;;21.08;12.10;;;13.60;97.90;;;;;;5068204;28;20028;-46
2022/03/16 11:37:40;;;;;;;9.38;5.72;;;13.70;98.40;;;;;;5087740;28;20433;-46
2022/03/16 11:40:09;;;;;;;7.97;5.68;;;13.60;98.90;;;;;;5069757;28;20028;-46
2022/03/16 11:42:40;;;;;;;12.57;8.18;;;13.50;99.00;;;;;;5068443;28;20439;-46
2022/03/16 11:45:33;;;;;;;10.55;7.30;;;13.50;98.70;;;;;;5064724;28;20047;-45
2022/03/16 11:47:59;;;;;;;16.05;9.63;;;13.50;99.30;;;;;;5086272;28;20032;-46
2022/03/16 11:50:25;;;;;;;23.90;13.25;;;13.60;99.50;;;;;;5069103;28;20044;-46
2022/03/16 11:53:04;;;;;;;64.25;21.10;;;13.60;99.90;;;;;;5066268;28;20537;-46
2022/03/16 11:55:40;;;;;;;16.52;8.70;;;13.50;99.90;;;;;;5069476;28;20039;-46
2022/03/16 11:58:42;;;;;;;19.88;11.05;;;13.60;99.90;;;;;;5072535;28;20036;-46
2022/03/16 12:01:30;;;;;;;17.75;9.90;;;13.70;99.90;;;;;;5060231;28;20048;-46
2022/03/16 12:04:19;;;;;;;14.80;8.68;;;13.70;99.90;;;;;;5060760;28;20029;-47
2022/03/16 12:06:54;;;;;;;11.70;6.50;;;13.60;99.90;;;;;;5068434;28;20411;-47
2022/03/16 12:09:45;;;;;;;10.40;7.15;;;13.70;99.90;;;;;;5068032;28;20039;-46
2022/03/16 12:15:02;;;;;;;9.10;6.30;;;14.00;99.80;;;;;;5064584;28;20176;-47
2022/03/16 12:17:28;;;;;;;11.23;6.97;;;13.90;99.90;;;;;;5087446;28;20040;-47
2022/03/16 12:20:10;;;;;;;7.30;6.03;;;14.00;99.70;;;;;;5066428;28;20029;-46
2022/03/16 12:22:47;;;;;;;9.00;6.85;;;13.90;99.20;;;;;;5066845;28;20051;-46
2022/03/16 12:25:35;;;;;;;8.43;6.53;;;13.90;99.10;;;;;;5066273;28;20404;-46
2022/03/16 12:30:55;;;;;;;11.75;5.95;;;14.10;98.60;;;;;;5065319;28;20035;-46
2022/03/16 12:33:23;;;;;;;5.55;4.00;;;14.20;99.50;;;;;;5067206;28;20036;-46
2022/03/16 12:35:53;;;;;;;11.13;6.47;;;14.20;99.00;;;;;;5061613;28;20036;-46
2022/03/16 12:38:21;;;;;;;8.65;7.05;;;14.20;99.50;;;;;;5065852;28;20043;-46
2022/03/16 12:43:32;;;;;;;11.63;6.82;;;14.40;99.20;;;;;;5069247;28;20494;-46
2022/03/16 12:46:16;;;;;;;10.45;7.15;;;14.30;99.10;;;;;;5057167;28;20147;-46
2022/03/16 12:48:49;;;;;;;9.55;5.93;;;14.40;98.10;;;;;;5068410;28;20057;-46
2022/03/16 12:51:32;;;;;;;7.05;4.63;;;14.20;98.10;;;;;;5070063;28;20476;-46
2022/03/16 12:53:58;;;;;;;8.10;4.53;;;14.30;98.20;;;;;;5072667;28;20064;-46
2022/03/16 12:56:24;;;;;;;7.75;5.20;;;14.30;98.40;;;;;;5073375;28;20062;-46
2022/03/16 12:58:53;;;;;;;7.85;4.20;;;14.40;97.70;;;;;;5074611;28;20060;-46
2022/03/16 13:01:20;;;;;;;7.72;4.13;;;14.20;97.60;;;;;;5068113;28;20365;-47